Time;durP1;ratioP1;P1;durP2;ratioP2;P2;SDS_P1;SDS_P2;PMS_P1;PMS_P2;Temp;Humidity;BMP_temperature;BMP_pressure;BME280_temperature;BME280_humidity;BME280_pressure;Samples;Min_cycle;Max_cycle;Signal;HPM_P1;HPM_P2
2022/05/09 00:01:52;;;;;;;14.82;4.45;;;7.50;99.90;;;;;;5010140;28;20040;-85
2022/05/09 00:04:19;;;;;;;16.23;4.30;;;7.50;99.90;;;;;;5009058;28;20029;-85
2022/05/09 00:06:46;;;;;;;16.45;4.15;;;7.50;99.90;;;;;;4992292;28;20547;-86
2022/05/09 00:09:12;;;;;;;16.23;4.40;;;7.40;99.90;;;;;;4995442;28;20078;-85
2022/05/09 00:11:37;;;;;;;7.93;3.88;;;7.40;99.90;;;;;;5025466;28;20041;-85
2022/05/09 00:14:03;;;;;;;12.13;4.18;;;7.80;99.90;;;;;;4989285;28;20040;-85
2022/05/09 00:16:33;;;;;;;11.65;4.45;;;7.40;99.90;;;;;;4989976;28;20113;-85
2022/05/09 00:19:04;;;;;;;9.85;4.18;;;7.40;99.90;;;;;;4991271;28;20496;-85
2022/05/09 00:21:31;;;;;;;11.07;3.50;;;7.30;99.90;;;;;;5008036;28;20025;-85
2022/05/09 00:23:57;;;;;;;14.25;4.68;;;7.60;99.90;;;;;;4991460;28;20045;-85
2022/05/09 00:26:24;;;;;;;10.45;4.20;;;7.30;99.90;;;;;;4996186;28;20059;-85
2022/05/09 00:28:50;;;;;;;17.48;5.22;;;7.20;99.90;;;;;;5008424;28;20041;-85
2022/05/09 00:31:15;;;;;;;11.65;4.75;;;7.60;99.90;;;;;;4998694;28;20068;-86
2022/05/09 00:33:41;;;;;;;15.25;5.38;;;7.50;99.90;;;;;;5025961;28;20083;-85
2022/05/09 00:36:07;;;;;;;13.30;4.80;;;7.30;99.90;;;;;;4993659;28;20090;-82
2022/05/09 00:38:32;;;;;;;18.20;5.25;;;7.20;99.90;;;;;;4995455;28;20044;-85
2022/05/09 00:43:42;;;;;;;13.95;4.68;;;7.20;99.90;;;;;;5026050;28;20040;-85
2022/05/09 00:46:08;;;;;;;14.38;4.75;;;7.30;99.90;;;;;;4994390;28;20048;-85
2022/05/09 00:48:36;;;;;;;13.90;5.20;;;7.40;99.90;;;;;;4992460;28;20045;-84
2022/05/09 00:51:04;;;;;;;16.33;4.70;;;7.10;99.90;;;;;;4994832;28;20075;-85
2022/05/09 00:53:32;;;;;;;18.27;5.15;;;7.60;99.90;;;;;;5019550;28;20119;-84
2022/05/09 00:56:01;;;;;;;18.90;5.47;;;7.40;99.90;;;;;;5024943;28;20040;-85
2022/05/09 00:58:35;;;;;;;15.35;5.05;;;7.20;99.90;;;;;;5012348;28;20025;-85
2022/05/09 01:01:03;;;;;;;17.25;4.82;;;7.00;99.90;;;;;;5008029;28;20072;-85
2022/05/09 01:03:50;;;;;;;15.18;4.60;;;7.00;99.90;;;;;;5011339;28;20074;-84
2022/05/09 01:06:17;;;;;;;10.32;4.65;;;7.00;99.90;;;;;;5009629;28;20041;-83
2022/05/09 01:08:42;;;;;;;18.98;5.18;;;6.90;99.90;;;;;;4993469;28;20052;-84
2022/05/09 01:11:14;;;;;;;20.80;6.20;;;6.90;99.90;;;;;;5023107;28;20517;-85
2022/05/09 01:13:44;;;;;;;13.05;3.53;;;6.90;99.90;;;;;;5026412;28;20047;-86
2022/05/09 01:16:12;;;;;;;16.90;5.10;;;6.90;99.90;;;;;;5027362;28;20076;-85
2022/05/09 01:18:39;;;;;;;17.80;4.90;;;6.90;99.90;;;;;;5008155;28;20029;-85
2022/05/09 01:21:32;;;;;;;12.32;4.93;;;7.10;99.90;;;;;;5009128;28;20076;-85
2022/05/09 01:23:58;;;;;;;10.43;3.53;;;6.80;99.90;;;;;;5019935;28;20044;-85
2022/05/09 01:26:24;;;;;;;15.07;4.75;;;6.90;99.90;;;;;;5010539;28;20041;-84
2022/05/09 01:28:50;;;;;;;14.75;5.53;;;7.50;99.90;;;;;;5011664;28;20433;-86
2022/05/09 01:31:18;;;;;;;12.77;4.57;;;6.70;99.90;;;;;;5022051;28;20037;-84
2022/05/09 01:33:49;;;;;;;18.40;5.45;;;6.90;99.90;;;;;;5009887;28;20028;-85
2022/05/09 01:36:31;;;;;;;16.75;4.55;;;6.70;99.90;;;;;;5001673;28;20037;-85
2022/05/09 01:38:59;;;;;;;10.25;4.50;;;6.70;99.90;;;;;;5007798;28;20120;-84
2022/05/09 01:41:27;;;;;;;15.55;4.85;;;6.70;99.90;;;;;;5011369;28;20512;-84
2022/05/09 01:43:57;;;;;;;15.35;4.65;;;6.70;99.90;;;;;;4985302;28;20494;-85
2022/05/09 01:46:26;;;;;;;14.68;4.63;;;6.60;99.90;;;;;;5025909;28;20052;-85
2022/05/09 01:51:39;;;;;;;13.13;4.75;;;7.30;99.90;;;;;;5015364;28;20041;-85
2022/05/09 01:54:05;;;;;;;12.27;4.20;;;6.60;99.90;;;;;;5024386;28;20769;-86
2022/05/09 01:56:34;;;;;;;16.83;4.82;;;6.50;99.90;;;;;;5033467;28;20044;-85
2022/05/09 01:59:01;;;;;;;15.32;4.50;;;6.60;99.90;;;;;;5009367;28;20075;-85
2022/05/09 02:01:30;;;;;;;15.13;5.28;;;6.70;99.90;;;;;;5024537;28;20036;-85
2022/05/09 02:03:57;;;;;;;12.13;5.07;;;6.60;99.90;;;;;;5008271;28;20036;-85
2022/05/09 02:06:23;;;;;;;15.07;5.00;;;6.50;99.90;;;;;;5014712;28;20127;-84
2022/05/09 02:08:49;;;;;;;17.75;4.93;;;6.50;99.90;;;;;;5008069;28;20123;-84
2022/05/09 02:11:15;;;;;;;11.40;4.68;;;6.50;99.90;;;;;;5010223;28;20071;-85
2022/05/09 02:13:41;;;;;;;12.27;4.25;;;6.80;99.90;;;;;;5029422;28;20064;-84
2022/05/09 02:16:07;;;;;;;13.70;4.55;;;6.80;99.90;;;;;;5014353;28;20095;-84
2022/05/09 02:18:34;;;;;;;11.07;3.95;;;6.40;99.90;;;;;;4996559;28;20033;-85
2022/05/09 02:21:00;;;;;;;10.65;4.82;;;6.40;99.90;;;;;;5028715;28;20037;-85
2022/05/09 02:23:25;;;;;;;14.80;5.82;;;6.80;99.90;;;;;;4997179;28;20036;-85
2022/05/09 02:25:51;;;;;;;14.50;4.70;;;6.40;99.90;;;;;;5012868;28;20092;-85
2022/05/09 02:28:17;;;;;;;13.50;4.78;;;6.50;99.90;;;;;;5027708;28;20098;-84
2022/05/09 02:30:43;;;;;;;13.15;5.65;;;6.70;99.90;;;;;;4975501;28;20592;-86
2022/05/09 02:33:10;;;;;;;14.02;4.70;;;6.40;99.90;;;;;;5024452;28;20052;-84
2022/05/09 02:35:38;;;;;;;14.88;4.35;;;6.40;99.90;;;;;;5009216;28;20041;-84
2022/05/09 02:38:04;;;;;;;12.43;4.63;;;6.40;99.90;;;;;;5007594;28;20044;-85
2022/05/09 02:40:33;;;;;;;14.27;5.00;;;6.40;99.90;;;;;;5020941;28;20405;-85
2022/05/09 02:42:59;;;;;;;12.25;4.78;;;6.40;99.90;;;;;;5023443;28;20037;-85
2022/05/09 02:45:25;;;;;;;12.07;4.22;;;6.40;99.90;;;;;;5010134;28;20029;-84
2022/05/09 02:47:51;;;;;;;11.20;4.80;;;6.40;99.90;;;;;;5010497;28;20037;-84
2022/05/09 02:50:17;;;;;;;15.82;5.22;;;6.40;99.90;;;;;;5003335;28;20116;-85
2022/05/09 02:52:43;;;;;;;12.75;4.70;;;6.40;99.90;;;;;;5010000;28;20068;-84
2022/05/09 02:55:12;;;;;;;12.00;4.13;;;6.40;99.90;;;;;;5025582;28;20493;-85
2022/05/09 03:00:26;;;;;;;13.38;4.57;;;6.30;99.90;;;;;;5065401;28;20109;-46
2022/05/09 03:05:39;;;;;;;14.80;4.80;;;6.30;99.90;;;;;;5064339;28;20123;-47
2022/05/09 03:08:06;;;;;;;11.95;4.30;;;6.30;99.90;;;;;;5052790;28;20036;-46
2022/05/09 03:10:32;;;;;;;12.68;4.60;;;6.40;99.90;;;;;;5055805;28;20050;-48
2022/05/09 03:13:03;;;;;;;15.50;4.38;;;6.40;99.90;;;;;;5068792;28;20495;-46
2022/05/09 03:15:30;;;;;;;8.63;3.67;;;6.40;99.90;;;;;;5051836;28;21290;-48
2022/05/09 03:17:56;;;;;;;11.60;3.67;;;6.30;99.90;;;;;;5048334;28;20472;-48
2022/05/09 03:20:22;;;;;;;14.88;4.35;;;6.30;99.90;;;;;;5049699;28;20036;-50
2022/05/09 03:22:48;;;;;;;19.20;4.63;;;6.40;99.90;;;;;;5066654;28;20501;-50
2022/05/09 03:25:15;;;;;;;13.18;5.05;;;6.50;99.90;;;;;;5037485;28;20045;-49
2022/05/09 03:27:40;;;;;;;18.50;5.15;;;6.40;99.90;;;;;;5053811;28;20047;-49
2022/05/09 03:30:11;;;;;;;14.23;4.18;;;6.40;99.90;;;;;;5054065;28;20064;-47
2022/05/09 03:32:38;;;;;;;12.70;4.53;;;6.40;99.90;;;;;;5049965;28;20040;-51
2022/05/09 03:35:09;;;;;;;8.82;4.28;;;6.40;99.90;;;;;;5033338;28;20100;-53
2022/05/09 03:37:36;;;;;;;15.40;4.70;;;6.40;99.90;;;;;;5049603;28;20526;-51
2022/05/09 03:40:02;;;;;;;21.52;7.03;;;6.40;99.90;;;;;;5049224;28;20037;-47
2022/05/09 03:42:28;;;;;;;15.50;5.07;;;6.40;99.90;;;;;;5049200;28;20051;-46
2022/05/09 03:44:53;;;;;;;15.82;5.03;;;6.40;99.90;;;;;;5051648;28;20032;-46
2022/05/09 03:47:19;;;;;;;12.90;5.00;;;6.30;99.90;;;;;;5046869;28;20123;-48
2022/05/09 03:49:45;;;;;;;12.30;4.78;;;6.30;99.90;;;;;;5059083;28;20108;-45
2022/05/09 03:52:10;;;;;;;15.85;5.85;;;6.50;99.90;;;;;;5053078;28;20044;-46
2022/05/09 03:54:36;;;;;;;16.58;4.97;;;6.30;99.90;;;;;;5057750;28;20048;-44
2022/05/09 03:57:02;;;;;;;14.02;5.32;;;6.30;99.90;;;;;;5062241;28;20462;-52
2022/05/09 03:59:29;;;;;;;17.77;6.03;;;6.30;99.90;;;;;;5064838;28;20407;-46
2022/05/09 04:01:56;;;;;;;9.93;5.28;;;6.30;99.90;;;;;;5056040;28;20059;-47
2022/05/09 04:04:22;;;;;;;13.55;4.97;;;6.30;99.90;;;;;;5037191;28;20115;-49
2022/05/09 04:06:51;;;;;;;22.10;6.65;;;6.30;99.90;;;;;;5050565;28;20516;-48
2022/05/09 04:09:20;;;;;;;11.50;4.82;;;6.20;99.90;;;;;;5058710;28;20105;-47
2022/05/09 04:11:47;;;;;;;11.60;4.78;;;6.20;99.90;;;;;;5054898;28;20049;-44
2022/05/09 04:14:13;;;;;;;19.90;6.97;;;6.20;99.90;;;;;;5051151;28;20121;-47
2022/05/09 04:16:51;;;;;;;26.33;7.07;;;6.20;99.90;;;;;;5039877;28;20135;-51
2022/05/09 04:19:19;;;;;;;24.08;7.22;;;6.20;99.90;;;;;;5055890;28;20135;-52
2022/05/09 04:21:45;;;;;;;27.00;7.95;;;6.20;99.90;;;;;;5050934;28;20025;-50
2022/05/09 04:24:11;;;;;;;18.33;6.40;;;6.20;99.90;;;;;;5062912;28;20123;-47
2022/05/09 04:26:37;;;;;;;17.83;6.65;;;6.10;99.90;;;;;;5062080;28;20126;-45
2022/05/09 04:29:02;;;;;;;21.02;7.32;;;6.10;99.90;;;;;;5058857;28;20051;-48
2022/05/09 04:31:29;;;;;;;26.27;6.85;;;6.20;99.90;;;;;;5058462;28;20072;-49
2022/05/09 04:33:55;;;;;;;23.23;7.75;;;6.20;99.90;;;;;;5040246;28;20476;-49
2022/05/09 04:36:22;;;;;;;21.02;7.68;;;6.20;99.90;;;;;;5057422;28;20037;-45
2022/05/09 04:38:50;;;;;;;19.73;8.27;;;6.30;99.90;;;;;;5054897;28;20040;-45
2022/05/09 04:41:19;;;;;;;20.77;7.30;;;6.30;99.90;;;;;;5048168;28;20320;-47
2022/05/09 04:43:46;;;;;;;18.70;6.20;;;6.30;99.90;;;;;;5043862;28;20522;-45
2022/05/09 04:46:13;;;;;;;17.38;6.40;;;6.30;99.90;;;;;;5054722;28;20083;-47
2022/05/09 04:48:43;;;;;;;18.55;6.82;;;6.40;99.90;;;;;;5039671;28;20124;-49
2022/05/09 04:51:10;;;;;;;16.75;6.30;;;6.50;99.90;;;;;;5048049;28;20320;-46
2022/05/09 04:53:36;;;;;;;18.90;8.25;;;6.50;99.90;;;;;;5049209;28;20111;-50
2022/05/09 04:56:02;;;;;;;22.10;8.25;;;6.50;99.90;;;;;;5053280;28;20041;-46
2022/05/09 04:58:28;;;;;;;19.95;8.20;;;6.50;99.90;;;;;;5049171;28;20506;-49
2022/05/09 05:00:55;;;;;;;22.15;8.05;;;6.50;99.90;;;;;;5054068;28;20044;-46
2022/05/09 05:03:21;;;;;;;19.60;7.53;;;6.60;99.90;;;;;;5047472;28;20131;-46
2022/05/09 05:05:47;;;;;;;25.52;8.52;;;6.60;99.90;;;;;;5048258;28;22305;-46
2022/05/09 05:08:14;;;;;;;23.85;8.05;;;6.70;99.90;;;;;;5047426;28;20041;-49
2022/05/09 05:10:41;;;;;;;18.35;7.15;;;6.70;99.90;;;;;;5049348;28;20072;-44
2022/05/09 05:13:07;;;;;;;15.45;6.40;;;6.80;99.90;;;;;;5048009;28;20044;-50
2022/05/09 05:15:33;;;;;;;22.25;6.45;;;6.90;99.90;;;;;;5049035;28;20106;-50
2022/05/09 05:18:00;;;;;;;15.02;6.93;;;7.00;99.90;;;;;;5047883;28;20538;-52
2022/05/09 05:20:26;;;;;;;20.15;8.57;;;7.10;99.90;;;;;;5027167;28;20459;-50
2022/05/09 05:22:52;;;;;;;19.13;8.02;;;7.10;99.90;;;;;;5055960;28;20037;-51
2022/05/09 05:25:27;;;;;;;15.02;7.05;;;7.20;99.90;;;;;;5054511;28;20423;-45
2022/05/09 05:27:54;;;;;;;24.00;9.10;;;7.30;99.90;;;;;;5047235;28;20055;-53
2022/05/09 05:30:20;;;;;;;26.15;7.60;;;7.30;99.90;;;;;;5040569;28;21935;-54
2022/05/09 05:32:47;;;;;;;29.40;9.00;;;7.30;99.90;;;;;;5064319;28;20052;-49
2022/05/09 05:35:19;;;;;;;20.67;8.68;;;7.40;99.90;;;;;;5056678;28;20050;-52
2022/05/09 05:37:44;;;;;;;19.95;9.25;;;7.40;99.90;;;;;;5067575;28;20040;-50
2022/05/09 05:40:11;;;;;;;17.05;7.80;;;7.50;99.90;;;;;;5033480;28;20414;-54
2022/05/09 05:42:39;;;;;;;20.83;8.07;;;7.50;99.90;;;;;;5037675;28;20037;-51
2022/05/09 05:45:06;;;;;;;26.17;9.38;;;7.50;99.90;;;;;;5057981;28;20036;-50
2022/05/09 05:47:32;;;;;;;24.40;8.93;;;7.60;99.90;;;;;;5052643;28;20044;-47
2022/05/09 05:49:57;;;;;;;24.75;8.82;;;7.70;99.90;;;;;;5059478;28;20039;-47
2022/05/09 05:52:24;;;;;;;24.63;9.02;;;7.70;99.90;;;;;;5040859;28;20550;-48
2022/05/09 05:54:49;;;;;;;18.92;8.07;;;7.80;99.90;;;;;;5060696;28;20462;-49
2022/05/09 05:57:25;;;;;;;20.65;9.45;;;7.90;99.90;;;;;;5062874;28;20040;-50
2022/05/09 05:59:58;;;;;;;25.33;8.13;;;8.00;99.90;;;;;;5056520;28;20047;-46
2022/05/09 06:02:26;;;;;;;20.02;6.65;;;8.10;99.90;;;;;;5062585;28;20041;-47
2022/05/09 06:04:52;;;;;;;18.23;7.00;;;8.20;99.90;;;;;;5048540;28;20484;-48
2022/05/09 06:07:19;;;;;;;21.00;7.80;;;8.40;99.90;;;;;;5046503;28;20046;-48
2022/05/09 06:09:46;;;;;;;18.75;7.97;;;8.50;99.90;;;;;;5058229;28;20036;-49
2022/05/09 06:12:14;;;;;;;21.65;8.50;;;8.60;99.90;;;;;;5044519;28;20072;-50
2022/05/09 06:14:40;;;;;;;19.98;8.18;;;8.70;99.90;;;;;;5062161;28;20056;-46
2022/05/09 06:17:07;;;;;;;16.70;7.57;;;8.90;99.90;;;;;;5060909;28;20046;-46
2022/05/09 06:19:33;;;;;;;20.30;8.90;;;9.00;99.90;;;;;;5056073;28;20143;-48
2022/05/09 06:21:59;;;;;;;23.40;7.78;;;9.10;99.90;;;;;;5062562;28;20653;-51
2022/05/09 06:24:26;;;;;;;17.20;8.30;;;9.20;99.90;;;;;;5054134;28;20044;-50
2022/05/09 06:26:53;;;;;;;23.20;8.85;;;9.40;99.90;;;;;;5053613;28;20148;-51
2022/05/09 06:29:19;;;;;;;17.65;8.27;;;9.50;99.90;;;;;;5049464;28;20103;-50
2022/05/09 06:31:45;;;;;;;20.08;7.53;;;9.60;99.90;;;;;;5052908;28;20499;-48
2022/05/09 06:34:13;;;;;;;17.02;8.70;;;9.80;99.90;;;;;;5052769;28;20076;-49
2022/05/09 06:36:40;;;;;;;18.25;8.27;;;9.90;99.90;;;;;;5057625;28;20574;-50
2022/05/09 06:39:08;;;;;;;20.50;8.07;;;10.00;99.90;;;;;;5053412;28;20051;-50
2022/05/09 06:41:34;;;;;;;19.83;7.80;;;10.10;99.90;;;;;;5061245;28;20032;-47
2022/05/09 06:44:00;;;;;;;19.55;6.53;;;10.20;99.90;;;;;;5056834;28;20519;-48
2022/05/09 06:46:26;;;;;;;21.88;7.57;;;10.40;99.90;;;;;;5050458;28;20040;-44
2022/05/09 06:48:52;;;;;;;17.95;6.53;;;10.50;99.90;;;;;;5058633;28;20228;-50
2022/05/09 06:51:18;;;;;;;14.25;6.25;;;10.70;99.90;;;;;;5048291;28;20048;-50
2022/05/09 06:53:44;;;;;;;19.25;6.90;;;10.80;99.90;;;;;;5051959;28;20036;-46
2022/05/09 06:56:10;;;;;;;21.23;6.38;;;10.90;99.90;;;;;;5048643;28;20663;-46
2022/05/09 06:58:37;;;;;;;16.42;5.97;;;11.00;99.90;;;;;;5046231;28;20137;-49
2022/05/09 07:01:15;;;;;;;15.07;5.43;;;11.20;99.90;;;;;;5050712;28;20041;-48
2022/05/09 07:03:42;;;;;;;16.77;6.20;;;11.30;99.90;;;;;;5051320;28;20028;-49
2022/05/09 07:06:08;;;;;;;14.20;5.60;;;11.50;99.90;;;;;;5013302;28;20490;-47
2022/05/09 07:08:34;;;;;;;17.40;6.00;;;11.60;99.90;;;;;;5053390;28;20210;-50
2022/05/09 07:11:02;;;;;;;24.75;6.90;;;11.80;99.90;;;;;;5052468;28;20041;-53
2022/05/09 07:13:28;;;;;;;16.27;6.13;;;11.80;99.90;;;;;;5055344;28;20045;-51
2022/05/09 07:15:57;;;;;;;13.95;6.32;;;11.90;99.90;;;;;;5057361;28;20100;-48
2022/05/09 07:18:26;;;;;;;15.93;5.90;;;12.10;99.90;;;;;;5041417;28;20119;-48
2022/05/09 07:20:51;;;;;;;15.68;5.60;;;12.20;99.90;;;;;;5054643;28;20089;-48
2022/05/09 07:23:17;;;;;;;14.77;5.43;;;12.30;99.90;;;;;;5056075;28;20028;-47
2022/05/09 07:25:43;;;;;;;14.45;5.53;;;12.40;99.90;;;;;;5052070;28;20096;-47
2022/05/09 07:28:11;;;;;;;16.77;5.90;;;12.40;99.90;;;;;;5048688;28;20487;-52
2022/05/09 07:30:38;;;;;;;16.35;6.45;;;12.60;99.90;;;;;;5053592;28;20047;-49
2022/05/09 07:33:04;;;;;;;14.07;6.13;;;12.70;99.90;;;;;;5056593;28;20032;-51
2022/05/09 07:35:32;;;;;;;16.45;6.35;;;12.70;99.90;;;;;;5043354;28;20167;-48
2022/05/09 07:37:58;;;;;;;17.05;6.22;;;12.80;99.90;;;;;;5060918;28;20029;-48
2022/05/09 07:40:23;;;;;;;14.90;5.55;;;12.90;99.90;;;;;;5020217;28;20561;-52
2022/05/09 07:42:49;;;;;;;19.60;6.57;;;13.10;99.90;;;;;;5058508;28;20514;-48
2022/05/09 07:45:18;;;;;;;21.13;6.28;;;13.20;99.90;;;;;;5054236;28;20095;-51
2022/05/09 07:47:43;;;;;;;12.52;5.47;;;13.30;99.90;;;;;;5054028;28;20581;-49
2022/05/09 07:50:11;;;;;;;15.00;5.90;;;13.50;99.90;;;;;;5056510;28;20041;-45
2022/05/09 07:52:37;;;;;;;15.23;5.55;;;13.60;99.90;;;;;;5056696;28;20591;-49
2022/05/09 07:55:04;;;;;;;20.08;6.80;;;13.80;99.90;;;;;;5059077;28;20127;-44
2022/05/09 07:57:30;;;;;;;17.52;5.88;;;13.90;99.90;;;;;;5062170;28;20033;-54
2022/05/09 07:59:58;;;;;;;17.25;5.85;;;14.00;99.90;;;;;;5057225;28;20036;-48
2022/05/09 08:02:24;;;;;;;14.60;5.32;;;14.10;99.90;;;;;;5037407;28;20080;-48
2022/05/09 08:04:50;;;;;;;12.13;5.30;;;14.20;99.90;;;;;;5055083;28;20163;-47
2022/05/09 08:07:16;;;;;;;15.55;5.20;;;14.30;99.90;;;;;;5060285;28;20193;-47
2022/05/09 08:09:42;;;;;;;12.77;5.13;;;14.30;99.90;;;;;;5057171;28;20033;-49
2022/05/09 08:12:09;;;;;;;17.70;6.43;;;14.40;99.90;;;;;;5059852;28;20410;-51
2022/05/09 08:14:34;;;;;;;12.38;4.95;;;14.60;99.90;;;;;;5056671;28;20395;-46
2022/05/09 08:17:02;;;;;;;12.00;5.13;;;14.70;99.90;;;;;;5048712;28;20033;-45
2022/05/09 08:19:31;;;;;;;18.90;5.47;;;14.80;99.90;;;;;;5057567;28;20069;-48
2022/05/09 08:21:57;;;;;;;12.45;4.80;;;15.00;99.90;;;;;;5062559;28;20029;-49
2022/05/09 08:24:24;;;;;;;16.00;4.50;;;15.20;99.90;;;;;;5050140;28;20094;-45
2022/05/09 08:26:50;;;;;;;14.27;5.00;;;15.30;99.80;;;;;;5039838;28;20079;-51
2022/05/09 08:29:16;;;;;;;15.70;5.00;;;15.40;99.50;;;;;;5054320;28;20065;-48
2022/05/09 08:31:41;;;;;;;14.38;4.75;;;15.60;99.50;;;;;;5050651;28;20278;-45
2022/05/09 08:34:08;;;;;;;11.75;5.32;;;15.60;98.80;;;;;;5050345;28;20105;-46
2022/05/09 08:36:46;;;;;;;16.60;5.32;;;15.80;98.90;;;;;;5051058;28;20045;-47
2022/05/09 08:39:13;;;;;;;14.27;5.18;;;15.90;98.50;;;;;;5051682;28;20075;-48
2022/05/09 08:42:06;;;;;;;10.90;4.72;;;16.10;98.70;;;;;;5058553;28;20048;-48
2022/05/09 08:45:06;;;;;;;11.73;4.25;;;16.20;98.20;;;;;;5063459;28;20029;-47
2022/05/09 08:47:49;;;;;;;13.85;4.43;;;16.40;97.60;;;;;;5053476;28;20606;-50
2022/05/09 08:50:30;;;;;;;10.48;3.45;;;16.60;97.30;;;;;;5060448;28;20065;-47
2022/05/09 08:52:59;;;;;;;10.27;3.90;;;16.80;96.80;;;;;;5054643;28;20442;-46
2022/05/09 08:55:32;;;;;;;12.20;4.22;;;16.90;96.30;;;;;;5051735;28;20258;-45
2022/05/09 08:58:14;;;;;;;17.40;4.80;;;17.00;95.50;;;;;;5050378;28;20112;-47
2022/05/09 09:00:52;;;;;;;10.23;3.50;;;17.20;95.50;;;;;;5003259;28;20544;-54
2022/05/09 09:03:24;;;;;;;10.35;3.83;;;17.40;94.30;;;;;;5006014;28;20096;-55
2022/05/09 09:05:54;;;;;;;13.60;4.57;;;17.50;92.80;;;;;;5012336;28;20034;-57
2022/05/09 09:08:41;;;;;;;13.85;3.97;;;17.70;91.90;;;;;;5002060;28;20030;-55
2022/05/09 09:11:15;;;;;;;11.40;3.60;;;17.80;92.60;;;;;;5011368;28;20060;-54
2022/05/09 09:14:32;;;;;;;13.38;4.50;;;17.90;92.20;;;;;;5005656;28;20151;-57
2022/05/09 09:17:16;;;;;;;11.80;3.90;;;18.00;92.10;;;;;;4958117;28;20449;-59
2022/05/09 09:20:12;;;;;;;11.20;3.20;;;18.10;89.60;;;;;;5010511;28;20396;-52
2022/05/09 09:22:51;;;;;;;10.60;4.10;;;18.20;90.40;;;;;;5015153;28;20033;-58
2022/05/09 09:25:22;;;;;;;14.27;3.95;;;18.20;88.30;;;;;;5013516;28;20037;-53
2022/05/09 09:27:54;;;;;;;11.57;2.72;;;18.40;89.10;;;;;;5010951;28;20475;-52
2022/05/09 09:30:22;;;;;;;12.60;3.60;;;18.50;83.70;;;;;;5010958;28;20247;-55
2022/05/09 09:32:59;;;;;;;10.10;2.92;;;18.60;81.00;;;;;;5001677;28;20472;-59
2022/05/09 09:35:50;;;;;;;8.48;2.50;;;18.70;78.00;;;;;;5011102;28;20050;-52
2022/05/09 09:38:40;;;;;;;13.20;3.08;;;18.80;70.30;;;;;;5011373;28;20061;-54
2022/05/09 09:41:20;;;;;;;7.68;2.60;;;18.90;71.00;;;;;;5008335;28;20413;-54
2022/05/09 09:43:48;;;;;;;10.07;2.67;;;19.00;73.10;;;;;;5008735;28;20041;-53
2022/05/09 09:46:15;;;;;;;8.05;3.20;;;18.90;70.20;;;;;;4994530;28;20049;-56
2022/05/09 09:48:41;;;;;;;8.93;2.97;;;18.90;70.00;;;;;;5005134;28;20049;-58
2022/05/09 09:51:17;;;;;;;12.43;3.05;;;19.00;71.70;;;;;;4972467;28;20056;-55
2022/05/09 09:53:52;;;;;;;10.35;3.00;;;19.20;70.50;;;;;;5015944;28;20449;-55
2022/05/09 09:56:20;;;;;;;7.30;2.60;;;19.40;70.10;;;;;;5003335;28;20073;-55
2022/05/09 09:58:51;;;;;;;6.47;2.60;;;19.50;68.90;;;;;;5003284;28;20142;-58
2022/05/09 10:01:26;;;;;;;10.77;3.45;;;19.70;68.50;;;;;;5004672;28;20481;-53
2022/05/09 10:04:10;;;;;;;10.48;3.00;;;19.80;67.30;;;;;;5008203;28;20066;-55
2022/05/09 10:06:55;;;;;;;;;;;19.90;65.70;;;;;;5007715;28;20053;-59
2022/05/09 10:09:22;;;;;;;9.75;2.80;;;19.90;63.40;;;;;;5004118;28;20041;-53
2022/05/09 10:11:48;;;;;;;9.27;2.90;;;20.00;66.00;;;;;;5010373;28;20036;-54
2022/05/09 10:14:34;;;;;;;8.10;2.70;;;20.00;60.50;;;;;;5016943;28;20504;-53
2022/05/09 10:17:25;;;;;;;12.90;3.17;;;20.10;60.80;;;;;;5007975;28;20053;-55
2022/05/09 10:19:51;;;;;;;9.93;2.75;;;20.20;63.00;;;;;;5016801;28;20071;-56
2022/05/09 10:25:23;;;;;;;13.77;3.25;;;20.30;63.40;;;;;;5002101;28;20129;-53
2022/05/09 10:28:14;;;;;;;12.48;3.47;;;20.20;63.50;;;;;;4997635;28;20060;-55
2022/05/09 10:30:47;;;;;;;7.18;3.00;;;20.40;60.20;;;;;;5006039;28;20364;-54
2022/05/09 10:33:32;;;;;;;10.63;3.70;;;20.50;63.30;;;;;;5012079;28;20038;-56
2022/05/09 10:36:04;;;;;;;10.00;3.33;;;20.60;63.60;;;;;;5007589;28;20026;-59
2022/05/09 10:38:40;;;;;;;8.68;3.22;;;20.70;61.40;;;;;;5008124;28;20488;-54
2022/05/09 10:41:21;;;;;;;8.57;3.15;;;20.70;60.30;;;;;;5010074;28;20120;-53
2022/05/09 10:43:59;;;;;;;9.18;2.83;;;20.80;60.40;;;;;;5010032;28;20037;-60
2022/05/09 10:46:37;;;;;;;8.05;3.45;;;20.90;59.60;;;;;;5013302;28;20052;-53
2022/05/09 10:49:30;;;;;;;11.02;3.20;;;21.00;58.70;;;;;;5003895;28;20404;-55
2022/05/09 10:52:06;;;;;;;13.77;3.60;;;21.30;59.80;;;;;;4991050;28;20057;-53
2022/05/09 10:55:16;;;;;;;7.15;2.65;;;21.30;58.00;;;;;;5005534;28;20048;-52
2022/05/09 10:57:46;;;;;;;9.05;2.92;;;21.30;58.50;;;;;;4975388;28;20077;-53
2022/05/09 11:00:25;;;;;;;10.20;2.90;;;21.50;58.20;;;;;;5026187;28;20549;-50
2022/05/09 11:03:09;;;;;;;9.18;3.33;;;21.50;56.80;;;;;;5004512;28;20045;-55
2022/05/09 11:06:10;;;;;;;8.15;2.70;;;21.60;57.10;;;;;;5004241;28;20088;-54
2022/05/09 11:08:57;;;;;;;10.63;3.25;;;21.60;55.80;;;;;;5003351;28;20092;-55
2022/05/09 11:11:32;;;;;;;8.15;3.33;;;21.70;54.80;;;;;;5001627;28;20132;-50
2022/05/09 11:13:58;;;;;;;9.00;2.88;;;21.90;56.40;;;;;;5002645;28;20178;-52
2022/05/09 11:16:48;;;;;;;13.32;3.42;;;21.80;54.70;;;;;;5001794;28;20128;-56
2022/05/09 11:19:57;;;;;;;7.93;2.70;;;21.90;56.20;;;;;;5002219;28;20103;-54
2022/05/09 11:22:36;;;;;;;8.48;3.13;;;22.10;53.70;;;;;;5001622;28;20042;-51
2022/05/09 11:25:27;;;;;;;6.95;2.83;;;22.10;55.40;;;;;;4999521;28;20574;-52
2022/05/09 11:28:10;;;;;;;8.57;3.17;;;22.20;54.00;;;;;;5000158;28;20366;-60
2022/05/09 11:31:24;;;;;;;6.88;2.63;;;22.20;53.40;;;;;;5013233;28;20096;-53
2022/05/09 11:34:19;;;;;;;7.82;2.88;;;22.20;50.20;;;;;;4934926;28;20524;-50
2022/05/09 11:36:45;;;;;;;6.35;2.47;;;22.20;54.30;;;;;;4946355;28;20055;-58
2022/05/09 11:39:14;;;;;;;9.18;2.80;;;22.30;53.00;;;;;;4981492;28;20054;-54
2022/05/09 11:45:35;;;;;;;7.18;2.92;;;21.70;50.10;;;;;;5001091;28;20565;-51
2022/05/09 11:48:19;;;;;;;8.50;3.17;;;21.80;51.30;;;;;;4988711;28;20108;-55
2022/05/09 11:51:11;;;;;;;7.75;2.80;;;22.10;54.30;;;;;;5001163;28;20420;-55
2022/05/09 11:53:41;;;;;;;9.30;3.28;;;22.40;52.50;;;;;;4979254;28;20057;-55
2022/05/09 11:56:08;;;;;;;8.65;3.10;;;22.60;52.60;;;;;;5018938;28;20048;-55
2022/05/09 11:58:41;;;;;;;8.77;3.53;;;22.90;53.20;;;;;;5009612;28;20485;-53
2022/05/09 12:01:07;;;;;;;10.00;3.03;;;23.00;52.10;;;;;;4991710;28;20042;-52
2022/05/09 12:03:39;;;;;;;8.93;3.25;;;23.10;52.80;;;;;;5006662;28;20117;-50
2022/05/09 12:06:06;;;;;;;7.78;2.78;;;23.10;52.20;;;;;;5008345;28;20373;-59
2022/05/09 12:09:01;;;;;;;7.45;2.83;;;23.10;52.40;;;;;;5009197;28;20046;-53
2022/05/09 12:11:41;;;;;;;9.10;2.90;;;23.20;49.10;;;;;;5009314;28;20069;-53
2022/05/09 12:14:07;;;;;;;7.78;2.70;;;22.90;48.80;;;;;;5015054;28;20481;-54
2022/05/09 12:16:36;;;;;;;9.13;2.90;;;22.50;49.70;;;;;;4990294;28;20127;-52
2022/05/09 12:19:13;;;;;;;7.97;2.83;;;22.60;49.60;;;;;;5004649;28;20177;-55
2022/05/09 12:21:41;;;;;;;9.95;2.80;;;22.60;47.50;;;;;;5002103;28;20069;-50
2022/05/09 12:24:18;;;;;;;8.50;2.83;;;22.70;49.50;;;;;;5010571;28;20092;-55
2022/05/09 12:26:53;;;;;;;10.23;3.42;;;22.80;47.00;;;;;;5010142;28;20061;-54
2022/05/09 12:29:19;;;;;;;7.07;2.33;;;22.80;47.60;;;;;;5016367;28;20117;-51
2022/05/09 12:31:58;;;;;;;7.57;2.60;;;22.90;49.20;;;;;;5021611;28;20128;-52
2022/05/09 12:34:38;;;;;;;9.82;3.10;;;23.20;50.30;;;;;;5029450;28;20313;-53
2022/05/09 12:37:05;;;;;;;11.00;3.33;;;23.50;48.90;;;;;;4995472;28;20173;-55
2022/05/09 12:39:39;;;;;;;7.78;2.80;;;23.70;48.50;;;;;;5022785;28;20628;-56
2022/05/09 12:42:12;;;;;;;7.50;2.90;;;23.70;46.90;;;;;;5017586;28;20045;-57
2022/05/09 12:44:46;;;;;;;9.30;2.53;;;23.90;45.20;;;;;;5001852;28;20578;-51
2022/05/09 12:47:25;;;;;;;8.38;2.50;;;24.00;47.00;;;;;;5002170;28;20072;-53
2022/05/09 12:50:08;;;;;;;8.45;3.13;;;24.00;44.30;;;;;;5000402;28;20233;-52
2022/05/09 12:52:41;;;;;;;9.68;3.03;;;23.90;45.80;;;;;;5010448;28;20053;-52
2022/05/09 12:57:53;;;;;;;7.57;2.55;;;23.40;46.20;;;;;;5011572;28;20053;-60
2022/05/09 13:00:28;;;;;;;10.32;2.72;;;23.70;46.00;;;;;;5005991;28;20414;-54
2022/05/09 13:02:54;;;;;;;7.80;2.17;;;23.90;46.20;;;;;;5014346;28;20147;-54
2022/05/09 13:05:35;;;;;;;7.28;2.75;;;24.10;46.50;;;;;;5015623;28;20367;-53
2022/05/09 13:08:05;;;;;;;10.02;2.90;;;24.30;43.30;;;;;;5010536;28;20435;-52
2022/05/09 13:10:32;;;;;;;6.95;2.28;;;24.50;46.00;;;;;;5016336;28;20049;-53
2022/05/09 13:13:06;;;;;;;6.93;2.47;;;24.60;46.00;;;;;;5013069;28;20405;-52
2022/05/09 13:15:33;;;;;;;7.05;2.25;;;24.70;43.70;;;;;;5015857;28;20125;-53
2022/05/09 13:18:01;;;;;;;8.43;2.67;;;24.70;45.20;;;;;;4992210;28;20118;-52
2022/05/09 13:20:29;;;;;;;8.15;2.50;;;24.90;45.60;;;;;;5003735;28;20041;-57
2022/05/09 13:22:58;;;;;;;7.82;2.63;;;24.90;44.50;;;;;;5002918;28;20046;-52
2022/05/09 13:25:40;;;;;;;7.18;2.30;;;25.00;43.60;;;;;;5023163;28;20455;-53